• location
  • image
mod_vvisit_countermod_vvisit_countermod_vvisit_countermod_vvisit_countermod_vvisit_countermod_vvisit_counter
mod_vvisit_counterToday313
mod_vvisit_counterYesterday1650
mod_vvisit_counterThis week1963
mod_vvisit_counterLast week9342
mod_vvisit_counterThis month30634
mod_vvisit_counterLast month25097
mod_vvisit_counterAll days597587

We have: 9 guests, 1 bots online
Your IP: 54.197.180.64
 , 
Today: Mar 28, 2017
Airport / Company / List of services

List of services

  

Services of Siauliai International Airport:

 

Leading (follow me)

Ground services

Aircraft loading/unloading

Aircraft parking

Aircraft security

Aircraft fuel supply

Passenger baggage service

Business class passenger service

Submission of information to passengers

Serving meals to passengers and crew

Additional services for aircraft crewmembers

Aviation Security

Dining Cafe

First medical aid

Hotel reservations

Transporting crew to/from the city

Taxi booking 

Border procedures

Customs procedures

 

Today

Tuesday, 28 March 2017

Weather Forecast

Siauliai °C
   

Aviation Weather Forecast

[source: ADDS]
METAR
EYSA 280550Z 30011KT CAVOK 03/M00 Q1015 R32R/09//95 R32L/09//95 BLU NOSIG =
TAF
TAF EYSA 280500Z 2806/2815 30012G22KT 9000 SCT025 =
SR / SS: 04:08 / 16:57 UTC (EYSA 2017-03-28)

Search

Who's Online

We have 10 guests online

tic logo en